This is the latest recevied weather packets stored in our database for station/object IZ5TJI-3. If no packets are shown the sender has not sent any weather packets the latest 1 day(s).
| Time | Temp. | Humidity | Pressure | Rain* | Wind** | Luminosity | Snow |
|---|---|---|---|---|---|---|---|
| 1777994115 | 18.33° C | 84% | 1011.4 hPa | 0 mm | 2.68 m/s, 225° | - | - |
| 1777993215 | 18.89° C | 82% | 1011 hPa | 0 mm | 3.13 m/s, 270° | - | - |
| 1777992315 | 18.89° C | 82% | 1011.2 hPa | 1.52 mm | 2.68 m/s, 292° | - | - |
| 1777991415 | 18.89° C | 84% | 1011.2 hPa | 1.52 mm | 2.24 m/s, 315° | - | - |
| 1777990515 | 18.89° C | 85% | 1011.4 hPa | 1.52 mm | 4.02 m/s, 292° | - | - |
| 1777989615 | 17.78° C | 87% | 1011.2 hPa | 1.52 mm | 2.68 m/s, 337° | - | - |
| 1777988715 | 17.78° C | 87% | 1011.4 hPa | 0 mm | 5.81 m/s, 292° | - | - |
| 1777987815 | 18.33° C | 82% | 1011.2 hPa | 0 mm | 3.13 m/s, 337° | - | - |
| 1777986915 | 18.89° C | 79% | 1011.3 hPa | 0 mm | 2.68 m/s, 337° | - | - |
| 1777986015 | 18.33° C | 82% | 1011.5 hPa | 0.51 mm | 3.13 m/s, 292° | - | - |
| 1777985115 | 19.44° C | 82% | 1011.5 hPa | 0.51 mm | 1.34 m/s, 315° | - | - |
| 1777984216 | 18.33° C | 85% | 1011.5 hPa | 0.51 mm | 0.45 m/s, 247° | - | - |
| 1777983316 | 18.33° C | 85% | 1011.6 hPa | 0 mm | 1.34 m/s, 292° | - | - |
| 1777982416 | 17.78° C | 86% | 1011.5 hPa | 0 mm | 3.13 m/s, 315° | - | - |
| 1777981516 | 17.22° C | 87% | 1012 hPa | 1.02 mm | 2.24 m/s, 337° | - | - |
| 1777980616 | 17.22° C | 89% | 1012 hPa | 1.52 mm | 2.24 m/s, 337° | - | - |
| 1777979716 | 16.11° C | 88% | 1011.8 hPa | 1.52 mm | 0 m/s | - | - |
| 1777978816 | 16.67° C | 88% | 1011.9 hPa | 1.52 mm | 3.58 m/s, 292° | - | - |
| 1777977954 | 16.11° C | 88% | 1011.5 hPa | 0.51 mm | 7.6 m/s, 315° | - | - |
| 1777977916 | 16.11° C | 88% | 1011.5 hPa | 0.51 mm | 7.6 m/s, 315° | - | - |
| 1777977016 | 16.67° C | 88% | 1011.6 hPa | 0.51 mm | 0.89 m/s, 67° | - | - |
| 1777976116 | 16.67° C | 88% | 1011.8 hPa | 0.51 mm | 1.34 m/s, 112° | - | - |
| 1777975216 | 15.56° C | 90% | 1011.8 hPa | 0.51 mm | 0.89 m/s, 45° | - | - |
| 1777974316 | 15° C | 90% | 1012.2 hPa | 0.51 mm | 2.24 m/s, 292° | - | - |
| 1777973416 | 15° C | 90% | 1012.2 hPa | 0 mm | 1.79 m/s, 292° | - | - |
* Rain latest hour (hover to see other rain measurements)
** Current wind speed in m/s (hover to see current wind gust speed)